Time;durP1;ratioP1;P1;durP2;ratioP2;P2;SDS_P1;SDS_P2;PMS_P1;PMS_P2;Temp;Humidity;BMP_temperature;BMP_pressure;BME280_temperature;BME280_humidity;BME280_pressure;Samples;Min_cycle;Max_cycle;Signal;HPM_P1;HPM_P2
2024/01/08 00:02:15;;;;;;;;;;;;;;;16.73;48.21;99315.19;5063427;28;1012;-60
2024/01/08 00:04:40;;;;;;;;;;;;;;;16.50;47.71;99311.59;5075721;28;1976;-61
2024/01/08 00:07:06;;;;;;;;;;;;;;;16.42;47.05;99307.66;5075949;28;1079;-61
2024/01/08 00:09:32;;;;;;;;;;;;;;;16.76;47.95;99317.31;5076299;28;1147;-62
2024/01/08 00:11:57;;;;;;;;;;;;;;;17.98;48.85;99308.19;5063834;28;1140;-62
2024/01/08 00:14:23;;;;;;;;;;;;;;;16.99;49.59;99331.06;5076580;28;1071;-62
2024/01/08 00:16:48;;;;;;;;;;;;;;;16.68;48.67;99334.50;5069705;28;1151;-62
2024/01/08 00:19:14;;;;;;;;;;;;;;;16.48;47.89;99335.78;5057640;28;1079;-61
2024/01/08 00:21:41;;;;;;;;;;;;;;;16.32;47.00;99349.00;5068831;28;1202;-62
2024/01/08 00:24:07;;;;;;;;;;;;;;;17.18;49.13;99352.88;5076334;28;1972;-62
2024/01/08 00:26:32;;;;;;;;;;;;;;;17.85;49.16;99353.91;5063059;28;1175;-62
2024/01/08 00:28:59;;;;;;;;;;;;;;;16.89;49.91;99356.03;5076571;28;1066;-61
2024/01/08 00:31:24;;;;;;;;;;;;;;;16.67;48.62;99362.25;5063156;28;1095;-62
2024/01/08 00:33:50;;;;;;;;;;;;;;;16.74;48.88;99368.94;5076274;28;858;-62
2024/01/08 00:36:16;;;;;;;;;;;;;;;17.62;49.57;99366.88;5069901;28;1066;-62
2024/01/08 00:38:41;;;;;;;;;;;;;;;16.86;49.53;99376.66;5056480;28;1084;-62
2024/01/08 00:41:07;;;;;;;;;;;;;;;16.67;48.30;99376.00;5062357;28;1084;-61
2024/01/08 00:43:32;;;;;;;;;;;;;;;16.46;47.27;99375.63;5075777;28;1988;-62
2024/01/08 00:45:58;;;;;;;;;;;;;;;17.41;49.30;99372.88;5069397;28;1024;-62
2024/01/08 00:48:23;;;;;;;;;;;;;;;17.84;49.24;99379.78;5068831;28;1135;-62
2024/01/08 00:50:51;;;;;;;;;;;;;;;17.00;49.55;99379.38;5075798;28;1024;-61
2024/01/08 00:53:16;;;;;;;;;;;;;;;16.77;48.42;99386.72;5057751;28;1059;-62
2024/01/08 00:55:42;;;;;;;;;;;;;;;16.67;48.21;99382.28;5056732;28;1198;-61
2024/01/08 00:58:08;;;;;;;;;;;;;;;18.06;49.13;99392.69;5068780;28;876;-62
2024/01/08 01:00:33;;;;;;;;;;;;;;;17.09;49.72;99395.94;5057446;28;1043;-62
2024/01/08 01:02:59;;;;;;;;;;;;;;;16.79;48.50;99406.47;5076302;28;1099;-62
2024/01/08 01:05:24;;;;;;;;;;;;;;;16.67;47.72;99415.22;5052295;28;1973;-61
2024/01/08 01:07:50;;;;;;;;;;;;;;;16.48;47.31;99411.78;5068575;28;1079;-61
2024/01/08 01:10:15;;;;;;;;;;;;;;;17.81;49.36;99409.81;5075463;28;1027;-61
2024/01/08 01:12:41;;;;;;;;;;;;;;;17.21;49.69;99403.63;5063459;28;1091;-62
2024/01/08 01:15:07;;;;;;;;;;;;;;;16.84;48.90;99408.28;5075322;28;1100;-61
2024/01/08 01:17:32;;;;;;;;;;;;;;;16.82;49.02;99405.03;5065758;28;1218;-62
2024/01/08 01:19:58;;;;;;;;;;;;;;;18.21;49.01;99404.38;5073898;28;1062;-62
2024/01/08 01:22:23;;;;;;;;;;;;;;;17.27;49.45;99413.38;5062682;28;1042;-62
2024/01/08 01:24:49;;;;;;;;;;;;;;;16.87;48.62;99402.16;5077764;28;1906;-60
2024/01/08 01:27:15;;;;;;;;;;;;;;;16.67;47.76;99414.41;5079681;28;1167;-62
2024/01/08 01:29:41;;;;;;;;;;;;;;;16.61;46.67;99410.97;5079470;28;1068;-61
2024/01/08 01:32:06;;;;;;;;;;;;;;;16.44;46.81;99411.59;5079681;28;999;-60
2024/01/08 01:34:32;;;;;;;;;;;;;;;17.71;49.33;99406.22;5078868;28;1079;-61
2024/01/08 01:36:57;;;;;;;;;;;;;;;17.41;49.95;99400.38;5067627;28;1079;-64
2024/01/08 01:39:23;;;;;;;;;;;;;;;16.92;48.93;99405.63;5078441;28;1143;-63
2024/01/08 01:41:50;;;;;;;;;;;;;;;16.57;48.22;99410.75;5079439;28;1071;-63
2024/01/08 01:44:16;;;;;;;;;;;;;;;16.67;48.19;99403.44;5073797;28;1901;-64
2024/01/08 01:46:42;;;;;;;;;;;;;;;18.02;49.33;99397.19;5075150;28;920;-63
2024/01/08 01:49:07;;;;;;;;;;;;;;;17.20;49.86;99399.25;5060946;28;1071;-63
2024/01/08 01:51:33;;;;;;;;;;;;;;;16.85;48.56;99407.16;5049191;28;1083;-63
2024/01/08 01:53:59;;;;;;;;;;;;;;;16.67;47.56;99408.94;5077847;28;1040;-63
2024/01/08 01:56:25;;;;;;;;;;;;;;;16.47;47.01;99410.19;5061334;28;1118;-63
2024/01/08 01:58:51;;;;;;;;;;;;;;;16.50;47.76;99409.56;5043949;28;1107;-63
2024/01/08 02:01:17;;;;;;;;;;;;;;;17.84;49.38;99411.94;5041300;28;1187;-63
2024/01/08 02:03:42;;;;;;;;;;;;;;;17.52;49.62;99413.88;5058833;28;1991;-63
2024/01/08 02:06:10;;;;;;;;;;;;;;;16.88;49.42;99412.03;5058542;28;1163;-63
2024/01/08 02:08:35;;;;;;;;;;;;;;;16.72;48.09;99423.34;5064796;28;1055;-63
2024/01/08 02:11:01;;;;;;;;;;;;;;;16.49;47.34;99424.38;5073152;28;838;-60
2024/01/08 02:13:27;;;;;;;;;;;;;;;16.38;46.66;99445.72;5072807;28;1114;-61
2024/01/08 02:15:52;;;;;;;;;;;;;;;17.02;48.59;99453.22;5071229;28;1421;-60
2024/01/08 02:18:21;;;;;;;;;;;;;;;17.82;49.63;99452.69;5077128;28;1071;-62
2024/01/08 02:20:47;;;;;;;;;;;;;;;16.96;49.37;99460.75;5079293;28;1058;-62
2024/01/08 02:23:12;;;;;;;;;;;;;;;16.67;48.23;99453.63;5072312;28;1015;-61
2024/01/08 02:25:38;;;;;;;;;;;;;;;16.46;47.27;99463.41;5058548;28;1922;-61
2024/01/08 02:28:04;;;;;;;;;;;;;;;16.41;46.57;99467.88;5076485;28;1130;-61
2024/01/08 02:30:29;;;;;;;;;;;;;;;17.36;49.15;99463.72;5078172;28;1083;-61
2024/01/08 02:32:55;;;;;;;;;;;;;;;16.90;49.79;99473.78;5059721;28;1058;-61
2024/01/08 02:35:20;;;;;;;;;;;;;;;16.55;48.35;99469.81;5070027;28;969;-61
2024/01/08 02:37:46;;;;;;;;;;;;;;;16.42;47.80;99465.94;5064760;28;1174;-61
2024/01/08 02:40:12;;;;;;;;;;;;;;;17.26;48.97;99463.94;5078438;28;1134;-60
2024/01/08 02:42:40;;;;;;;;;;;;;;;17.86;49.00;99464.69;5078312;28;1241;-61
2024/01/08 02:45:06;;;;;;;;;;;;;;;16.89;49.56;99468.59;5065476;28;1898;-60
2024/01/08 02:47:37;;;;;;;;;;;;;;;16.64;48.40;99470.72;5053650;28;961;-60
2024/01/08 02:50:05;;;;;;;;;;;;;;;16.46;47.41;99479.88;5071466;28;1095;-60
2024/01/08 02:52:31;;;;;;;;;;;;;;;16.51;46.97;99485.25;5066787;28;821;-60
2024/01/08 02:54:57;;;;;;;;;;;;;;;17.79;49.25;99487.97;5077668;28;1074;-60
2024/01/08 02:57:23;;;;;;;;;;;;;;;17.25;49.47;99489.78;5070962;28;1119;-60
2024/01/08 02:59:48;;;;;;;;;;;;;;;16.79;48.68;99491.56;5071182;28;1163;-60
2024/01/08 03:02:14;;;;;;;;;;;;;;;16.69;47.63;99486.25;5071301;28;1062;-61
2024/01/08 03:04:39;;;;;;;;;;;;;;;16.77;48.31;99497.38;5057745;28;1968;-62
2024/01/08 03:07:05;;;;;;;;;;;;;;;17.63;49.23;99494.94;5077593;28;1159;-61
2024/01/08 03:09:30;;;;;;;;;;;;;;;16.84;49.07;99490.63;5077445;28;1063;-61
2024/01/08 03:11:56;;;;;;;;;;;;;;;16.69;47.93;99491.75;5064562;28;1060;-61
2024/01/08 03:14:22;;;;;;;;;;;;;;;17.26;49.02;99492.22;5046034;28;1226;-61
2024/01/08 03:16:47;;;;;;;;;;;;;;;17.86;49.22;99492.19;5063919;28;1152;-61
2024/01/08 03:19:13;;;;;;;;;;;;;;;17.11;49.06;99498.06;5064592;28;1040;-60
2024/01/08 03:21:39;;;;;;;;;;;;;;;16.81;48.11;99503.03;5076080;28;1151;-61
2024/01/08 03:24:05;;;;;;;;;;;;;;;16.53;47.36;99494.00;5070739;28;1929;-61
2024/01/08 03:26:30;;;;;;;;;;;;;;;17.55;49.11;99503.94;5077117;28;1054;-61
2024/01/08 03:28:56;;;;;;;;;;;;;;;17.10;49.53;99501.94;5064895;28;1186;-61
2024/01/08 03:31:22;;;;;;;;;;;;;;;16.73;48.54;99509.25;5070431;28;1514;-61
2024/01/08 03:33:48;;;;;;;;;;;;;;;16.60;47.61;99511.69;5066700;28;1074;-61
2024/01/08 03:36:13;;;;;;;;;;;;;;;16.41;46.87;99509.03;5062812;28;1055;-61
2024/01/08 03:38:39;;;;;;;;;;;;;;;17.63;49.23;99522.44;5077004;28;1067;-61
2024/01/08 03:41:04;;;;;;;;;;;;;;;17.05;49.05;99521.25;5062778;28;1230;-61
2024/01/08 03:43:30;;;;;;;;;;;;;;;16.66;48.02;99528.88;5076836;28;1902;-61
2024/01/08 03:45:55;;;;;;;;;;;;;;;16.51;47.32;99537.38;5073883;28;1066;-61
2024/01/08 03:48:21;;;;;;;;;;;;;;;16.35;46.80;99543.16;5039322;28;1040;-61
2024/01/08 03:50:46;;;;;;;;;;;;;;;16.73;47.38;99540.28;5075983;28;1031;-61
2024/01/08 03:53:12;;;;;;;;;;;;;;;17.97;48.55;99553.28;5059376;28;1091;-60
2024/01/08 03:55:38;;;;;;;;;;;;;;;16.98;49.63;99565.59;5071002;28;1070;-60
2024/01/08 03:58:03;;;;;;;;;;;;;;;16.67;48.21;99579.91;5056775;28;1146;-60
2024/01/08 04:00:29;;;;;;;;;;;;;;;16.48;47.54;99590.13;5070292;28;1126;-60
2024/01/08 04:02:55;;;;;;;;;;;;;;;17.17;48.90;99597.66;5068834;28;1205;-61
2024/01/08 04:05:20;;;;;;;;;;;;;;;17.63;48.82;99604.91;5076437;28;1996;-60
2024/01/08 04:07:46;;;;;;;;;;;;;;;16.89;48.92;99608.63;5076371;28;1279;-60
2024/01/08 04:10:12;;;;;;;;;;;;;;;16.66;47.92;99615.88;5070837;28;1174;-60
2024/01/08 04:12:38;;;;;;;;;;;;;;;16.95;48.63;99615.66;5069243;28;1035;-60
2024/01/08 04:15:03;;;;;;;;;;;;;;;17.45;49.21;99625.91;5070251;28;1218;-60
2024/01/08 04:17:29;;;;;;;;;;;;;;;16.81;48.65;99628.53;5070491;28;1250;-59
2024/01/08 04:19:54;;;;;;;;;;;;;;;16.59;47.87;99633.56;5071968;28;1163;-61
2024/01/08 04:22:20;;;;;;;;;;;;;;;16.39;46.92;99642.94;5072420;28;1141;-61
2024/01/08 04:24:46;;;;;;;;;;;;;;;16.81;47.98;99650.50;5069916;28;1910;-59
2024/01/08 04:27:11;;;;;;;;;;;;;;;17.94;48.25;99648.25;5070695;28;1153;-60
2024/01/08 04:29:37;;;;;;;;;;;;;;;16.88;49.14;99657.22;5074334;28;1008;-63
2024/01/08 04:32:03;;;;;;;;;;;;;;;16.58;48.31;99664.06;5073612;28;1035;-62
2024/01/08 04:34:28;;;;;;;;;;;;;;;17.71;48.94;99658.34;5061244;28;1079;-62
2024/01/08 04:36:54;;;;;;;;;;;;;;;17.76;48.86;99656.28;5064526;28;1127;-63
2024/01/08 04:39:19;;;;;;;;;;;;;;;17.03;48.91;99669.06;5060586;28;1151;-59
2024/01/08 04:41:45;;;;;;;;;;;;;;;16.76;47.86;99663.19;5075763;28;1035;-62
2024/01/08 04:44:10;;;;;;;;;;;;;;;17.06;48.88;99665.69;5070538;28;1976;-61
2024/01/08 04:46:36;;;;;;;;;;;;;;;17.44;49.16;99654.50;5065853;28;1388;-61
2024/01/08 04:49:04;;;;;;;;;;;;;;;16.86;48.91;99650.41;5058907;28;999;-59
2024/01/08 04:51:30;;;;;;;;;;;;;;;16.60;47.57;99634.38;5065695;28;1420;-61
2024/01/08 04:53:56;;;;;;;;;;;;;;;16.42;47.23;99634.13;5074548;28;2581;-60
2024/01/08 04:56:24;;;;;;;;;;;;;;;16.42;46.21;99617.69;5078058;28;1183;-58
2024/01/08 04:58:51;;;;;;;;;;;;;;;16.69;47.53;99613.34;5073908;28;1051;-56
2024/01/08 05:01:17;;;;;;;;;;;;;;;17.94;48.63;99626.25;5078236;28;1000;-54
2024/01/08 05:03:43;;;;;;;;;;;;;;;17.40;49.16;99635.09;5079707;28;1911;-54
2024/01/08 05:06:09;;;;;;;;;;;;;;;16.86;48.61;99647.66;5079614;28;984;-52
2024/01/08 05:08:35;;;;;;;;;;;;;;;16.58;47.89;99653.09;5079487;28;1601;-54
2024/01/08 05:11:01;;;;;;;;;;;;;;;17.21;48.97;99648.13;5078987;28;1064;-53
2024/01/08 05:13:26;;;;;;;;;;;;;;;17.10;49.35;99653.78;5079637;28;1110;-53
2024/01/08 05:15:52;;;;;;;;;;;;;;;16.61;48.57;99652.47;5079271;28;1143;-53
2024/01/08 05:18:17;;;;;;;;;;;;;;;16.51;47.45;99642.50;5078323;28;1088;-56
2024/01/08 05:20:43;;;;;;;;;;;;;;;17.19;48.75;99656.63;5079776;28;1187;-54
2024/01/08 05:23:08;;;;;;;;;;;;;;;18.08;47.91;99648.19;5077446;28;1235;-50
2024/01/08 05:25:34;;;;;;;;;;;;;;;17.19;49.85;99653.88;5072664;28;2224;-54
2024/01/08 05:28:00;;;;;;;;;;;;;;;16.72;50.98;99656.66;5078607;28;1015;-55
2024/01/08 05:30:26;;;;;;;;;;;;;;;16.47;51.35;99646.16;5079027;28;1179;-54
2024/01/08 05:32:53;;;;;;;;;;;;;;;16.62;51.43;99665.09;5069269;28;1086;-54
2024/01/08 05:35:18;;;;;;;;;;;;;;;17.57;48.70;99672.09;5075662;28;1142;-54
2024/01/08 05:37:44;;;;;;;;;;;;;;;16.72;50.67;99670.41;5078677;28;1051;-55
2024/01/08 05:40:10;;;;;;;;;;;;;;;16.36;51.55;99668.25;5079128;28;1151;-53
2024/01/08 05:42:35;;;;;;;;;;;;;;;16.15;51.73;99667.75;5078735;28;1103;-54
2024/01/08 05:45:01;;;;;;;;;;;;;;;15.97;52.14;99680.34;5078737;28;1976;-53
2024/01/08 05:47:27;;;;;;;;;;;;;;;15.78;52.30;99680.31;5071122;28;1083;-53
2024/01/08 05:49:52;;;;;;;;;;;;;;;15.71;52.18;99680.69;5076208;28;1078;-54
2024/01/08 05:52:18;;;;;;;;;;;;;;;15.59;52.61;99702.22;5078413;28;1078;-55
2024/01/08 05:54:43;;;;;;;;;;;;;;;15.45;52.78;99701.28;5071910;28;1824;-56
2024/01/08 05:57:09;;;;;;;;;;;;;;;15.46;52.31;99711.13;5078914;28;1143;-53
2024/01/08 05:59:34;;;;;;;;;;;;;;;16.49;50.76;99718.78;5074706;28;1150;-54
2024/01/08 06:02:00;;;;;;;;;;;;;;;17.40;48.55;99717.53;5078273;28;1082;-51
2024/01/08 06:04:25;;;;;;;;;;;;;;;16.39;50.97;99733.50;5077433;28;1979;-61
2024/01/08 06:06:52;;;;;;;;;;;;;;;15.87;52.05;99738.88;5078074;28;1183;-56
2024/01/08 06:09:18;;;;;;;;;;;;;;;15.72;52.23;99748.09;5076520;28;1035;-56
2024/01/08 06:11:43;;;;;;;;;;;;;;;15.53;52.66;99755.44;5066970;28;1386;-54
2024/01/08 06:14:09;;;;;;;;;;;;;;;16.07;51.93;99762.50;5075407;28;1068;-52
2024/01/08 06:16:35;;;;;;;;;;;;;;;17.42;48.16;99770.25;5069994;28;1116;-53
2024/01/08 06:19:01;;;;;;;;;;;;;;;16.49;50.38;99775.63;5077656;28;1130;-55
2024/01/08 06:21:27;;;;;;;;;;;;;;;15.97;51.57;99770.84;5077759;28;1023;-49
2024/01/08 06:23:52;;;;;;;;;;;;;;;15.71;52.21;99784.00;5072795;28;1980;-52
2024/01/08 06:26:18;;;;;;;;;;;;;;;15.55;52.37;99788.84;5062453;28;1096;-53
2024/01/08 06:28:43;;;;;;;;;;;;;;;15.42;52.87;99787.63;5068381;28;1028;-50
2024/01/08 06:31:09;;;;;;;;;;;;;;;16.52;50.96;99796.97;5068110;28;1119;-48
2024/01/08 06:33:35;;;;;;;;;;;;;;;17.72;47.65;99806.50;5077911;28;1188;-52
2024/01/08 06:36:00;;;;;;;;;;;;;;;18.18;46.36;99818.53;5069093;28;1020;-54
2024/01/08 06:38:26;;;;;;;;;;;;;;;16.96;49.38;99834.22;5078218;28;1042;-48
2024/01/08 06:40:51;;;;;;;;;;;;;;;16.42;50.73;99826.22;5070456;28;1120;-52
2024/01/08 06:43:17;;;;;;;;;;;;;;;16.35;51.10;99842.19;5077185;28;1078;-50
2024/01/08 06:45:43;;;;;;;;;;;;;;;17.87;47.43;99843.09;5071514;28;1909;-52
2024/01/08 06:48:08;;;;;;;;;;;;;;;17.08;49.23;99839.25;5068338;28;1170;-56
2024/01/08 06:50:36;;;;;;;;;;;;;;;16.39;50.72;99843.25;5074913;28;1276;-49
2024/01/08 06:53:02;;;;;;;;;;;;;;;16.57;50.80;99833.38;5077136;28;881;-54
2024/01/08 06:55:27;;;;;;;;;;;;;;;17.16;48.92;99830.31;5064833;28;1938;-52
2024/01/08 06:57:54;;;;;;;;;;;;;;;16.45;50.92;99841.25;5077163;28;1110;-52
2024/01/08 07:00:20;;;;;;;;;;;;;;;16.20;51.56;99850.63;5071531;28;1145;-52
2024/01/08 07:02:46;;;;;;;;;;;;;;;15.97;51.75;99855.84;5077351;28;1181;-46
2024/01/08 07:05:12;;;;;;;;;;;;;;;16.74;50.68;99865.81;5077081;28;1891;-54
2024/01/08 07:07:37;;;;;;;;;;;;;;;18.11;47.18;99868.47;5076914;28;1235;-50
2024/01/08 07:10:04;;;;;;;;;;;;;;;17.22;49.02;99875.00;5077240;28;1068;-56
2024/01/08 07:12:29;;;;;;;;;;;;;;;16.51;50.75;99872.16;5066234;28;1103;-55
2024/01/08 07:14:55;;;;;;;;;;;;;;;16.21;51.80;99891.47;5074636;28;1311;-52
2024/01/08 07:17:21;;;;;;;;;;;;;;;17.93;47.50;99897.69;5077206;28;988;-53
2024/01/08 07:19:46;;;;;;;;;;;;;;;18.07;46.99;99883.94;5076418;28;1074;-53
2024/01/08 07:22:12;;;;;;;;;;;;;;;16.96;49.65;99883.66;5076626;28;1000;-52
2024/01/08 07:24:38;;;;;;;;;;;;;;;16.56;50.84;99916.03;5076336;28;1910;-54
2024/01/08 07:27:04;;;;;;;;;;;;;;;16.31;51.39;99917.97;5077111;28;1012;-54
2024/01/08 07:29:29;;;;;;;;;;;;;;;17.96;47.36;99899.03;5076791;28;1374;-53
2024/01/08 07:31:55;;;;;;;;;;;;;;;17.34;48.56;99916.56;5076537;28;1036;-53
2024/01/08 07:34:20;;;;;;;;;;;;;;;16.63;50.63;99924.72;5076388;28;1167;-54
2024/01/08 07:36:46;;;;;;;;;;;;;;;16.23;51.32;99927.66;5075786;28;837;-52
2024/01/08 07:39:14;;;;;;;;;;;;;;;16.51;51.10;99938.03;5076690;28;1079;-54
2024/01/08 07:41:40;;;;;;;;;;;;;;;18.03;47.21;99929.69;5076460;28;1102;-53
2024/01/08 07:44:06;;;;;;;;;;;;;;;17.82;47.40;99936.66;5076298;28;1980;-52
2024/01/08 07:46:32;;;;;;;;;;;;;;;16.94;49.66;99929.81;5076610;28;1094;-51
2024/01/08 07:48:58;;;;;;;;;;;;;;;16.51;50.93;99938.03;5068262;28;1548;-51
2024/01/08 07:51:24;;;;;;;;;;;;;;;16.23;51.14;99944.13;5076246;28;1446;-54
2024/01/08 07:53:50;;;;;;;;;;;;;;;16.93;49.90;99939.97;5075668;28;1965;-55
2024/01/08 07:56:16;;;;;;;;;;;;;;;17.90;47.03;99936.78;5076541;28;1348;-52
2024/01/08 07:58:41;;;;;;;;;;;;;;;16.85;49.74;99931.56;5076073;28;1297;-50
2024/01/08 08:01:08;;;;;;;;;;;;;;;16.36;50.76;99939.84;5070204;28;1007;-50
2024/01/08 08:03:34;;;;;;;;;;;;;;;16.18;51.34;99943.38;5076428;28;1159;-53
2024/01/08 08:05:59;;;;;;;;;;;;;;;17.16;49.04;99950.38;5076050;28;1909;-51
2024/01/08 08:08:25;;;;;;;;;;;;;;;17.81;47.20;99951.53;5076043;28;1170;-51
2024/01/08 08:10:51;;;;;;;;;;;;;;;16.83;49.69;99963.97;5076182;28;1008;-53
2024/01/08 08:13:16;;;;;;;;;;;;;;;16.33;50.82;99976.13;5063932;28;1035;-54
2024/01/08 08:15:42;;;;;;;;;;;;;;;16.24;51.18;99978.69;5067994;28;1104;-54
2024/01/08 08:18:08;;;;;;;;;;;;;;;17.88;47.06;99982.19;5064823;28;1019;-54
2024/01/08 08:20:34;;;;;;;;;;;;;;;17.18;48.55;99989.34;5074329;28;1304;-54
2024/01/08 08:22:59;;;;;;;;;;;;;;;16.42;50.30;100004.56;5072300;28;1262;-54
2024/01/08 08:25:25;;;;;;;;;;;;;;;16.16;51.01;99992.19;5071407;28;1979;-57
2024/01/08 08:27:51;;;;;;;;;;;;;;;17.30;48.59;100013.66;5069607;28;1047;-54
2024/01/08 08:30:19;;;;;;;;;;;;;;;17.70;47.22;100017.72;5068318;28;1084;-55
2024/01/08 08:32:45;;;;;;;;;;;;;;;16.80;49.37;100019.50;5070371;28;1103;-52
2024/01/08 08:35:10;;;;;;;;;;;;;;;16.32;50.72;100010.13;5068257;28;1286;-55
2024/01/08 08:37:36;;;;;;;;;;;;;;;17.06;49.17;100007.09;5064829;28;1017;-55
2024/01/08 08:40:02;;;;;;;;;;;;;;;17.88;46.64;100009.69;5068766;28;1116;-51
2024/01/08 08:42:28;;;;;;;;;;;;;;;16.83;49.47;100021.63;5074338;28;1062;-52
2024/01/08 08:44:53;;;;;;;;;;;;;;;16.37;50.28;100023.81;5067711;28;1905;-57
2024/01/08 08:47:19;;;;;;;;;;;;;;;16.10;51.00;100012.56;5075257;28;1064;-55
2024/01/08 08:49:44;;;;;;;;;;;;;;;17.37;47.88;99970.13;5062824;28;1076;-50
2024/01/08 08:52:10;;;;;;;;;;;;;;;17.73;46.53;99966.81;5074978;28;1059;-54
2024/01/08 08:54:36;;;;;;;;;;;;;;;16.79;49.25;100006.88;5065858;28;2018;-51
2024/01/08 08:57:01;;;;;;;;;;;;;;;16.28;50.63;100006.34;5075433;28;1293;-48
2024/01/08 08:59:27;;;;;;;;;;;;;;;16.05;51.07;100025.22;5071609;28;1136;-51
2024/01/08 09:01:52;;;;;;;;;;;;;;;17.64;47.41;100023.56;5060131;28;1292;-54
2024/01/08 09:04:18;;;;;;;;;;;;;;;17.49;47.21;100022.72;5048237;28;1918;-55
2024/01/08 09:06:44;;;;;;;;;;;;;;;16.63;49.50;100040.00;5069732;28;1380;-54
2024/01/08 09:09:11;;;;;;;;;;;;;;;16.24;50.47;100038.19;5067384;28;1026;-54
2024/01/08 09:11:37;;;;;;;;;;;;;;;16.03;50.93;100038.41;5066231;28;1332;-51
2024/01/08 09:14:03;;;;;;;;;;;;;;;17.57;47.28;100051.44;5070480;28;1019;-53
2024/01/08 09:16:28;;;;;;;;;;;;;;;17.35;47.61;100055.59;5062828;28;999;-55
2024/01/08 09:18:54;;;;;;;;;;;;;;;16.53;49.60;100070.31;5070945;28;1122;-54
2024/01/08 09:21:20;;;;;;;;;;;;;;;16.25;50.18;100062.59;5071561;28;1325;-53
2024/01/08 09:23:46;;;;;;;;;;;;;;;16.11;50.95;100064.38;5067153;28;1985;-56
2024/01/08 09:26:11;;;;;;;;;;;;;;;17.74;46.89;100059.16;5063267;28;1190;-53
2024/01/08 09:28:37;;;;;;;;;;;;;;;17.19;47.97;100063.22;5074698;28;1272;-52
2024/01/08 09:31:03;;;;;;;;;;;;;;;16.53;49.60;100076.59;5072647;28;1151;-53
2024/01/08 09:33:28;;;;;;;;;;;;;;;16.15;50.54;100083.84;5073761;28;1305;-52
2024/01/08 09:35:54;;;;;;;;;;;;;;;17.04;48.36;100080.75;5068743;28;1063;-52
2024/01/08 09:38:20;;;;;;;;;;;;;;;17.73;46.51;100088.59;5060627;28;1076;-52
2024/01/08 09:40:49;;;;;;;;;;;;;;;16.73;48.97;100083.81;5059901;28;1064;-51
2024/01/08 09:43:15;;;;;;;;;;;;;;;16.24;49.92;100085.69;5077233;28;1251;-52
2024/01/08 09:46:01;;;;;;;;;;;;;;;16.72;49.33;100084.13;5077470;28;1906;-51
2024/01/08 09:48:27;;;;;;;;;;;;;;;18.05;45.79;100089.78;5077458;28;1024;-51
2024/01/08 09:50:52;;;;;;;;;;;;;;;16.91;48.25;100096.00;5054474;28;1184;-53
2024/01/08 09:53:18;;;;;;;;;;;;;;;16.37;49.75;100103.38;5078675;28;1442;-52
2024/01/08 09:55:43;;;;;;;;;;;;;;;16.13;50.16;100113.47;5072838;28;2065;-52
2024/01/08 09:58:10;;;;;;;;;;;;;;;17.62;46.71;100098.09;5060698;28;1044;-51
2024/01/08 10:00:35;;;;;;;;;;;;;;;17.33;47.04;100110.03;5077943;28;972;-53
2024/01/08 10:03:01;;;;;;;;;;;;;;;16.53;49.29;100105.97;5065692;28;1031;-51
2024/01/08 10:05:27;;;;;;;;;;;;;;;16.28;49.86;100105.09;5078307;28;1909;-53
2024/01/08 10:07:53;;;;;;;;;;;;;;;17.73;46.59;100105.09;5078404;28;1070;-53
2024/01/08 10:10:19;;;;;;;;;;;;;;;17.31;47.24;100111.47;5077362;28;1214;-53
2024/01/08 10:12:47;;;;;;;;;;;;;;;16.50;49.22;100112.88;5077378;28;1071;-52
2024/01/08 10:15:18;;;;;;;;;;;;;;;16.10;50.36;100120.34;5055689;28;1112;-53
2024/01/08 10:17:46;;;;;;;;;;;;;;;16.42;49.61;100128.03;5077200;28;1055;-53
2024/01/08 10:20:13;;;;;;;;;;;;;;;17.98;45.87;100125.09;5077114;28;1098;-52
2024/01/08 10:22:38;;;;;;;;;;;;;;;16.95;48.19;100126.44;5074315;28;1316;-52
2024/01/08 10:25:04;;;;;;;;;;;;;;;16.41;49.68;100122.81;5069795;28;1960;-54
2024/01/08 10:27:30;;;;;;;;;;;;;;;16.08;50.41;100128.84;5073737;28;1099;-53
2024/01/08 10:29:56;;;;;;;;;;;;;;;17.64;46.65;100131.59;5072906;28;1157;-51
2024/01/08 10:32:24;;;;;;;;;;;;;;;17.21;47.46;100123.41;5074821;28;1492;-53
2024/01/08 10:34:50;;;;;;;;;;;;;;;16.55;49.26;100132.03;5075448;28;1329;-52
2024/01/08 10:37:15;;;;;;;;;;;;;;;16.24;50.13;100128.72;5074116;28;1433;-51
2024/01/08 10:39:42;;;;;;;;;;;;;;;17.29;47.65;100133.72;5070143;28;1004;-53
2024/01/08 10:42:08;;;;;;;;;;;;;;;17.70;46.26;100130.44;5059526;28;1127;-53
2024/01/08 10:44:34;;;;;;;;;;;;;;;16.77;48.50;100139.78;5047117;28;1898;-55
2024/01/08 10:47:00;;;;;;;;;;;;;;;16.35;49.73;100138.50;5064399;28;1450;-53
2024/01/08 10:49:32;;;;;;;;;;;;;;;16.06;50.44;100138.47;5072540;28;1055;-53
2024/01/08 10:51:58;;;;;;;;;;;;;;;17.17;47.81;100141.59;5068722;28;1514;-51
2024/01/08 10:54:24;;;;;;;;;;;;;;;17.90;45.73;100136.75;5068919;28;2399;-52
2024/01/08 10:56:50;;;;;;;;;;;;;;;16.88;48.41;100151.50;5053695;28;1289;-52
2024/01/08 10:59:18;;;;;;;;;;;;;;;16.36;49.63;100145.63;5044308;28;1302;-54
2024/01/08 11:01:45;;;;;;;;;;;;;;;16.29;50.06;100156.13;5053095;28;1327;-52
2024/01/08 11:04:10;;;;;;;;;;;;;;;17.87;45.99;100154.66;5056051;28;1906;-52
2024/01/08 11:06:38;;;;;;;;;;;;;;;17.26;47.33;100150.78;5059359;28;1254;-53
2024/01/08 11:09:04;;;;;;;;;;;;;;;16.55;49.18;100158.63;5070230;28;1249;-54
2024/01/08 11:11:33;;;;;;;;;;;;;;;16.16;50.01;100160.34;5071705;28;1159;-51
2024/01/08 11:13:59;;;;;;;;;;;;;;;17.02;48.30;100170.03;5067637;28;1150;-49
2024/01/08 11:16:29;;;;;;;;;;;;;;;17.92;45.88;100178.53;5072071;28;1047;-50
2024/01/08 11:19:13;;;;;;;;;;;;;;;16.80;48.57;100192.47;5075569;28;1133;-50
2024/01/08 11:21:38;;;;;;;;;;;;;;;16.23;49.79;100184.72;5075464;28;1036;-51
2024/01/08 11:24:04;;;;;;;;;;;;;;;16.31;49.97;100186.03;5069543;28;1925;-51
2024/01/08 11:26:30;;;;;;;;;;;;;;;17.95;45.87;100177.97;5047730;28;1088;-49
2024/01/08 11:29:04;;;;;;;;;;;;;;;17.07;47.50;100180.97;5069934;28;1145;-48
2024/01/08 11:31:48;;;;;;;;;;;;;;;16.41;49.41;100189.50;5069769;28;1126;-54
2024/01/08 11:34:14;;;;;;;;;;;;;;;16.14;49.93;100187.22;5075494;28;1134;-46
2024/01/08 11:36:48;;;;;;;;;;;;;;;17.52;46.93;100186.22;5076249;28;1113;-49
2024/01/08 11:39:17;;;;;;;;;;;;;;;17.28;47.01;100192.56;5068943;28;1408;-52
2024/01/08 11:41:45;;;;;;;;;;;;;;;16.47;49.04;100184.78;5070096;28;1320;-48
2024/01/08 11:44:10;;;;;;;;;;;;;;;16.12;49.99;100194.09;5067707;28;1906;-53
2024/01/08 11:46:36;;;;;;;;;;;;;;;17.60;46.57;100188.31;5072558;28;1292;-51
2024/01/08 11:49:05;;;;;;;;;;;;;;;17.56;46.34;100199.06;5075999;28;1142;-55
2024/01/08 11:51:34;;;;;;;;;;;;;;;16.63;48.69;100204.69;5062635;28;1241;-52
2024/01/08 11:54:06;;;;;;;;;;;;;;;16.33;49.46;100205.78;5062772;28;2008;-55
2024/01/08 11:56:33;;;;;;;;;;;;;;;16.65;48.67;100227.19;5075303;28;1277;-52
2024/01/08 11:58:59;;;;;;;;;;;;;;;18.01;45.51;100229.03;5076029;28;1044;-50
2024/01/08 12:01:24;;;;;;;;;;;;;;;16.87;47.94;100239.63;5073245;28;1175;-51
2024/01/08 12:03:50;;;;;;;;;;;;;;;16.31;49.43;100236.22;5067617;28;1917;-50
2024/01/08 12:06:16;;;;;;;;;;;;;;;16.60;48.96;100260.97;5075677;28;1015;-50
2024/01/08 12:08:41;;;;;;;;;;;;;;;18.02;45.25;100263.69;5066985;28;1219;-50
2024/01/08 12:11:07;;;;;;;;;;;;;;;16.99;47.46;100266.75;5069155;28;1277;-52
2024/01/08 12:13:32;;;;;;;;;;;;;;;16.32;49.38;100261.75;5057371;28;1318;-48
2024/01/08 12:16:00;;;;;;;;;;;;;;;16.05;50.09;100266.56;5069640;28;1070;-52
2024/01/08 12:18:25;;;;;;;;;;;;;;;17.38;46.84;100269.38;5064537;28;1308;-51
2024/01/08 12:20:51;;;;;;;;;;;;;;;17.74;45.65;100281.88;5068587;28;1075;-53
2024/01/08 12:23:17;;;;;;;;;;;;;;;16.76;48.11;100280.91;5064520;28;1090;-55
2024/01/08 12:25:43;;;;;;;;;;;;;;;16.23;49.37;100292.50;5072334;28;2105;-50
2024/01/08 12:28:09;;;;;;;;;;;;;;;16.73;48.30;100303.44;5050090;28;1122;-47
2024/01/08 12:30:34;;;;;;;;;;;;;;;18.01;45.22;100314.31;5075688;28;1218;-51
2024/01/08 12:33:01;;;;;;;;;;;;;;;16.92;47.82;100330.25;5071041;28;1050;-48
2024/01/08 12:35:27;;;;;;;;;;;;;;;16.51;48.71;100327.75;5063608;28;1265;-48
2024/01/08 12:37:53;;;;;;;;;;;;;;;16.07;49.70;100341.16;5075205;28;1107;-51
2024/01/08 12:40:19;;;;;;;;;;;;;;;17.43;46.76;100349.03;5075365;28;1102;-51
2024/01/08 12:42:45;;;;;;;;;;;;;;;17.43;46.38;100348.19;5057685;28;977;-52
2024/01/08 12:45:10;;;;;;;;;;;;;;;16.58;48.58;100355.72;5075924;28;1902;-51
2024/01/08 12:47:36;;;;;;;;;;;;;;;16.21;49.41;100354.25;5075359;28;1088;-49